FEK weather

Ferkessedougou Airport
Ferkessedougou, Savanes, Côte d'Ivoire

Public forecast

Using degrees Celsius for public forecast. Weather courtesy of forecast.io.

Closest aviation weather report (METAR) to Ferkessedougou Airport

Report is more than 6 hours old.

Closest report is Korhogo Airport, 25.5 nm (47.3 km) WSW. Retrieved 2020/04/07 16:00 UTC (2 months ago):

DIKO 071600Z 28006KT 9999 BKN015 SCT100 38/21 Q1009 NOSIG

Closest aviation forecast (TAF) to Ferkessedougou Airport

Forecast is more than 12 hours old.

Closest forecast is Boundiali Airport, 76.1 nm (140.9 km) W. Retrieved 2009/12/27 10:00 UTC (10 years ago):

TAF DIBI 271000Z 2712/2812 30008KT 6000 FEW015 PROB30 TEMPO 2715/2719 3000 HZ TEMPO 2806/2809 3000 BR